Detall de PIREP

Printer-friendly versionPDF version

[2015/04/30 13:28:00]
Flight IATA:CT0001
Pilot Number:016
Company ICAO:CAT
Aircraft Type:B763/F
PAX:140
Departing Airport: LEBL
Destination Airport: LEPA
Alternate Airport:LEBL
Online: VATSIM
Route:LARPA TOLSO
Flight Level:F190
No Slew and time accel
No pause
Crash detect
Detect pilot in Cockpit between each 30 and 45 minutes
13:28 Zero fuel Weight: 244975 Lbs, Fuel Weight: 40368 Lbs
13:28 VATSIM:LEBL 301100Z 20012KT 9999 FEW018 19/14 Q1021 NOSIG
13:28 VATSIM:LEPA 301100Z 23011KT 9999 FEW030 21/10 Q1021 NOSIG
13:29 Parking Brakes off
13:36 Take-off
13:36 Take off Weight: 283643 Lbs
13:36 Wind: 204º @ 012 Knots Heading: 242º
13:36 POS N41º 17´ 18´´ E002º 05´ 33´´
13:36 Flaps:2 at 151 Knots
13:36 Gear Up: 156 Knots
13:37 Flaps:1 at 232 Knots
13:37 Flaps:0 at 243 Knots
13:41 TOC
13:41 Fuel Weight: 35233 Lb
13:46 TOD
13:46 Fuel Weight: 34227 Lb
13:51 Wind:223º@021 Knots Heading: 124º Ground Speed: 328 Knots Altitude 10131 ft
14:06 Wind:223º@018 Knots Heading: 045º Ground Speed: 286 Knots Altitude 6998 ft
14:06 Flaps:1 at 240 Knots
14:07 Gear Down: 211 Knots
14:07 Flaps:2 at 213 Knots
14:09 Flaps:3 at 179 Knots
14:09 Flaps:4 at 175 Knots
14:10 Flaps:5 at 143 Knots
14:15 Flaps:6 at 139 Knots
14:15 TouchDown:Rate -205 ft/min Speed: 135 Knots
14:15 VATSIM:LEPA 301200Z 23009KT 190V280 9999 FEW015 20/13 Q1021 NOSIG
14:15 Land
14:15 Wind:200º@009 Knots
14:15 Heading: 059º
14:15 Flight Duration: 00:39
14:15 Landing Weight: 273831 Lbs
14:15 POS N39º 33´ 21´´ E002º 43´ 44´´
14:17 Parking brakes on
14:17 Block to Block Duration: 00:48
14:17 Final Fuel: 28622 Lbls
14:17 Spent Fuel: 11746 Lbls
14:17 Flight Length: 178 NM
14:17 TOD Land Length: 121 NM

Exportar CSV

Powered by Drupal - Modified by Danger4k